sensor_id;sensor_type;location;lat;lon;timestamp;pressure;altitude;pressure_sealevel;temperature;humidity
77823;BME280;67013;49.730;17.292;2024-03-23T00:54:50;97767.47;;;11.05;56.40
77823;BME280;67013;49.730;17.292;2024-03-23T00:57:19;97770.44;;;11.05;56.36
77823;BME280;67013;49.730;17.292;2024-03-23T00:59:49;97768.52;;;11.05;56.52
77823;BME280;67013;49.730;17.292;2024-03-23T01:02:18;97764.02;;;11.05;56.75
77823;BME280;67013;49.730;17.292;2024-03-23T01:04:48;97763.65;;;11.05;56.63
77823;BME280;67013;49.730;17.292;2024-03-23T01:07:17;97758.64;;;11.05;56.74
77823;BME280;67013;49.730;17.292;2024-03-23T01:09:46;97755.65;;;11.05;56.51
77823;BME280;67013;49.730;17.292;2024-03-23T01:12:15;97751.84;;;11.05;56.79
77823;BME280;67013;49.730;17.292;2024-03-23T01:14:44;97746.41;;;11.03;56.78
77823;BME280;67013;49.730;17.292;2024-03-23T01:17:13;97745.27;;;11.02;56.88
77823;BME280;67013;49.730;17.292;2024-03-23T01:19:42;97744.77;;;11.00;56.90
77823;BME280;67013;49.730;17.292;2024-03-23T01:22:11;97745.67;;;10.99;57.11
77823;BME280;67013;49.730;17.292;2024-03-23T01:24:40;97744.50;;;10.99;57.16
77823;BME280;67013;49.730;17.292;2024-03-23T01:27:09;97748.29;;;10.99;57.30
77823;BME280;67013;49.730;17.292;2024-03-23T01:29:39;97751.58;;;11.00;57.51
77823;BME280;67013;49.730;17.292;2024-03-23T01:32:09;97753.15;;;11.00;57.28
77823;BME280;67013;49.730;17.292;2024-03-23T01:34:38;97752.57;;;11.00;57.36
77823;BME280;67013;49.730;17.292;2024-03-23T01:37:07;97744.63;;;10.99;57.45
77823;BME280;67013;49.730;17.292;2024-03-23T01:39:36;97749.71;;;11.01;57.69
77823;BME280;67013;49.730;17.292;2024-03-23T01:42:06;97747.46;;;11.01;57.83
77823;BME280;67013;49.730;17.292;2024-03-23T01:44:35;97744.13;;;10.99;57.89
77823;BME280;67013;49.730;17.292;2024-03-23T01:47:04;97734.58;;;10.97;57.94
77823;BME280;67013;49.730;17.292;2024-03-23T01:49:35;97738.67;;;10.96;57.88
77823;BME280;67013;49.730;17.292;2024-03-23T01:52:05;97738.55;;;10.95;57.93
77823;BME280;67013;49.730;17.292;2024-03-23T01:54:35;97728.55;;;10.94;57.98
77823;BME280;67013;49.730;17.292;2024-03-23T01:57:05;97707.75;;;10.93;58.40
77823;BME280;67013;49.730;17.292;2024-03-23T01:59:35;97700.64;;;10.89;58.48
77823;BME280;67013;49.730;17.292;2024-03-23T02:02:04;97706.93;;;10.85;58.77
77823;BME280;67013;49.730;17.292;2024-03-23T02:04:33;97708.49;;;10.81;58.89
77823;BME280;67013;49.730;17.292;2024-03-23T02:07:03;97687.73;;;10.77;58.41
77823;BME280;67013;49.730;17.292;2024-03-23T02:09:33;97687.41;;;10.75;58.73
77823;BME280;67013;49.730;17.292;2024-03-23T02:12:05;97688.66;;;10.73;58.77
77823;BME280;67013;49.730;17.292;2024-03-23T02:14:34;97695.36;;;10.70;59.71
77823;BME280;67013;49.730;17.292;2024-03-23T02:17:04;97691.40;;;10.67;60.62
77823;BME280;67013;49.730;17.292;2024-03-23T02:19:33;97686.19;;;10.65;61.00
77823;BME280;67013;49.730;17.292;2024-03-23T02:22:02;97682.38;;;10.65;61.55
77823;BME280;67013;49.730;17.292;2024-03-23T02:24:31;97670.30;;;10.64;61.65
77823;BME280;67013;49.730;17.292;2024-03-23T02:27:02;97667.76;;;10.63;61.61
77823;BME280;67013;49.730;17.292;2024-03-23T02:29:31;97668.82;;;10.63;62.37
77823;BME280;67013;49.730;17.292;2024-03-23T02:32:00;97673.29;;;10.61;62.91
77823;BME280;67013;49.730;17.292;2024-03-23T02:34:29;97664.52;;;10.58;63.24
77823;BME280;67013;49.730;17.292;2024-03-23T02:36:59;97653.52;;;10.56;63.32
77823;BME280;67013;49.730;17.292;2024-03-23T02:39:28;97659.25;;;10.56;63.32
77823;BME280;67013;49.730;17.292;2024-03-23T02:41:57;97660.13;;;10.56;63.27
77823;BME280;67013;49.730;17.292;2024-03-23T02:44:26;97658.27;;;10.57;63.01
77823;BME280;67013;49.730;17.292;2024-03-23T02:46:55;97651.93;;;10.58;62.79
77823;BME280;67013;49.730;17.292;2024-03-23T02:49:25;97652.13;;;10.58;63.02
77823;BME280;67013;49.730;17.292;2024-03-23T02:51:54;97654.93;;;10.58;63.21
77823;BME280;67013;49.730;17.292;2024-03-23T02:54:23;97653.34;;;10.58;63.33
77823;BME280;67013;49.730;17.292;2024-03-23T02:56:52;97651.29;;;10.60;63.41
77823;BME280;67013;49.730;17.292;2024-03-23T02:59:21;97647.39;;;10.61;63.56
77823;BME280;67013;49.730;17.292;2024-03-23T03:01:51;97642.61;;;10.60;63.67
77823;BME280;67013;49.730;17.292;2024-03-23T03:04:20;97638.62;;;10.58;63.80
77823;BME280;67013;49.730;17.292;2024-03-23T03:06:49;97629.96;;;10.53;63.89
77823;BME280;67013;49.730;17.292;2024-03-23T03:09:18;97624.85;;;10.50;63.67
77823;BME280;67013;49.730;17.292;2024-03-23T03:11:48;97627.69;;;10.49;63.65
77823;BME280;67013;49.730;17.292;2024-03-23T03:14:17;97629.27;;;10.49;64.11
77823;BME280;67013;49.730;17.292;2024-03-23T03:16:48;97622.40;;;10.50;63.76
77823;BME280;67013;49.730;17.292;2024-03-23T03:19:17;97622.34;;;10.53;63.82
77823;BME280;67013;49.730;17.292;2024-03-23T03:21:46;97619.29;;;10.54;64.33
77823;BME280;67013;49.730;17.292;2024-03-23T03:24:16;97618.90;;;10.52;63.92
77823;BME280;67013;49.730;17.292;2024-03-23T03:26:45;97616.59;;;10.53;63.48
77823;BME280;67013;49.730;17.292;2024-03-23T03:29:14;97610.91;;;10.56;63.66
77823;BME280;67013;49.730;17.292;2024-03-23T03:31:43;97599.62;;;10.56;63.99
77823;BME280;67013;49.730;17.292;2024-03-23T03:34:13;97589.23;;;10.56;64.21
77823;BME280;67013;49.730;17.292;2024-03-23T03:36:42;97592.11;;;10.54;63.81
77823;BME280;67013;49.730;17.292;2024-03-23T03:39:11;97594.75;;;10.52;62.98
77823;BME280;67013;49.730;17.292;2024-03-23T03:41:40;97592.10;;;10.54;62.35
77823;BME280;67013;49.730;17.292;2024-03-23T03:44:09;97587.15;;;10.58;62.04
77823;BME280;67013;49.730;17.292;2024-03-23T03:46:39;97585.77;;;10.62;62.15
77823;BME280;67013;49.730;17.292;2024-03-23T03:49:09;97582.64;;;10.66;62.08
77823;BME280;67013;49.730;17.292;2024-03-23T03:51:38;97579.74;;;10.69;62.34
77823;BME280;67013;49.730;17.292;2024-03-23T03:54:07;97579.26;;;10.71;62.25
77823;BME280;67013;49.730;17.292;2024-03-23T03:56:36;97578.64;;;10.72;61.97
77823;BME280;67013;49.730;17.292;2024-03-23T03:59:06;97572.67;;;10.75;61.99
77823;BME280;67013;49.730;17.292;2024-03-23T04:01:35;97570.46;;;10.74;62.44
77823;BME280;67013;49.730;17.292;2024-03-23T04:04:07;97570.23;;;10.71;62.57
77823;BME280;67013;49.730;17.292;2024-03-23T04:06:36;97568.20;;;10.68;62.95
77823;BME280;67013;49.730;17.292;2024-03-23T04:09:05;97560.98;;;10.65;62.23
77823;BME280;67013;49.730;17.292;2024-03-23T04:11:34;97558.70;;;10.66;61.89
77823;BME280;67013;49.730;17.292;2024-03-23T04:14:03;97554.83;;;10.66;62.23
77823;BME280;67013;49.730;17.292;2024-03-23T04:16:35;97550.98;;;10.66;62.68
77823;BME280;67013;49.730;17.292;2024-03-23T04:19:04;97551.55;;;10.64;62.91
77823;BME280;67013;49.730;17.292;2024-03-23T04:21:34;97547.54;;;10.62;62.81
77823;BME280;67013;49.730;17.292;2024-03-23T04:24:04;97548.98;;;10.61;62.67
77823;BME280;67013;49.730;17.292;2024-03-23T04:26:41;97551.89;;;10.59;63.16
77823;BME280;67013;49.730;17.292;2024-03-23T04:29:10;97556.53;;;10.56;63.46
77823;BME280;67013;49.730;17.292;2024-03-23T04:31:40;97554.84;;;10.51;63.18
77823;BME280;67013;49.730;17.292;2024-03-23T04:34:09;97551.30;;;10.52;63.25
77823;BME280;67013;49.730;17.292;2024-03-23T04:36:38;97547.70;;;10.54;63.01
77823;BME280;67013;49.730;17.292;2024-03-23T04:39:08;97544.79;;;10.55;63.20
77823;BME280;67013;49.730;17.292;2024-03-23T04:41:37;97543.34;;;10.54;63.31
77823;BME280;67013;49.730;17.292;2024-03-23T04:44:07;97540.75;;;10.51;63.32
77823;BME280;67013;49.730;17.292;2024-03-23T04:46:36;97540.61;;;10.49;63.21
77823;BME280;67013;49.730;17.292;2024-03-23T04:49:05;97541.36;;;10.47;63.58
77823;BME280;67013;49.730;17.292;2024-03-23T04:51:37;97536.23;;;10.44;63.54
77823;BME280;67013;49.730;17.292;2024-03-23T04:54:07;97527.35;;;10.42;63.32
77823;BME280;67013;49.730;17.292;2024-03-23T04:56:36;97524.75;;;10.42;62.80
77823;BME280;67013;49.730;17.292;2024-03-23T04:59:06;97524.08;;;10.43;62.98
77823;BME280;67013;49.730;17.292;2024-03-23T05:01:35;97520.89;;;10.44;62.84
77823;BME280;67013;49.730;17.292;2024-03-23T05:04:06;97520.38;;;10.46;61.99
77823;BME280;67013;49.730;17.292;2024-03-23T05:06:35;97525.95;;;10.50;62.39
77823;BME280;67013;49.730;17.292;2024-03-23T05:09:05;97528.36;;;10.50;62.93
77823;BME280;67013;49.730;17.292;2024-03-23T05:11:35;97530.48;;;10.48;62.88
77823;BME280;67013;49.730;17.292;2024-03-23T05:14:04;97528.58;;;10.48;62.47
77823;BME280;67013;49.730;17.292;2024-03-23T05:16:33;97525.19;;;10.51;62.54
77823;BME280;67013;49.730;17.292;2024-03-23T05:19:02;97523.58;;;10.53;62.98
77823;BME280;67013;49.730;17.292;2024-03-23T05:21:32;97521.12;;;10.55;63.10
77823;BME280;67013;49.730;17.292;2024-03-23T05:24:01;97525.36;;;10.56;62.76
77823;BME280;67013;49.730;17.292;2024-03-23T05:26:31;97526.51;;;10.57;63.12
77823;BME280;67013;49.730;17.292;2024-03-23T05:29:02;97523.65;;;10.58;62.77
77823;BME280;67013;49.730;17.292;2024-03-23T05:31:32;97517.38;;;10.58;62.45
77823;BME280;67013;49.730;17.292;2024-03-23T05:34:01;97515.59;;;10.59;61.78
77823;BME280;67013;49.730;17.292;2024-03-23T05:36:31;97512.71;;;10.60;61.77
77823;BME280;67013;49.730;17.292;2024-03-23T05:39:00;97509.48;;;10.62;61.71
77823;BME280;67013;49.730;17.292;2024-03-23T05:41:30;97506.29;;;10.65;61.47
77823;BME280;67013;49.730;17.292;2024-03-23T05:43:59;97504.86;;;10.69;61.45
77823;BME280;67013;49.730;17.292;2024-03-23T05:46:28;97501.98;;;10.72;61.32
77823;BME280;67013;49.730;17.292;2024-03-23T05:49:02;97498.74;;;10.75;61.20
77823;BME280;67013;49.730;17.292;2024-03-23T05:51:31;97490.34;;;10.78;60.88
77823;BME280;67013;49.730;17.292;2024-03-23T05:54:01;97487.45;;;10.81;60.83
77823;BME280;67013;49.730;17.292;2024-03-23T05:56:30;97486.92;;;10.84;60.72
77823;BME280;67013;49.730;17.292;2024-03-23T05:58:59;97487.70;;;10.87;60.29
77823;BME280;67013;49.730;17.292;2024-03-23T06:01:28;97488.55;;;10.92;60.39
77823;BME280;67013;49.730;17.292;2024-03-23T06:04:00;97490.61;;;10.96;60.58
77823;BME280;67013;49.730;17.292;2024-03-23T06:06:30;97489.05;;;11.00;60.33
77823;BME280;67013;49.730;17.292;2024-03-23T06:08:59;97487.03;;;11.01;59.91
77823;BME280;67013;49.730;17.292;2024-03-23T06:11:28;97487.45;;;11.04;59.99
77823;BME280;67013;49.730;17.292;2024-03-23T06:13:58;97493.23;;;11.06;60.09
77823;BME280;67013;49.730;17.292;2024-03-23T06:16:27;97493.99;;;11.07;60.54
77823;BME280;67013;49.730;17.292;2024-03-23T06:18:56;97494.55;;;11.06;60.76
77823;BME280;67013;49.730;17.292;2024-03-23T06:21:26;97495.17;;;11.07;60.71
77823;BME280;67013;49.730;17.292;2024-03-23T06:23:55;97491.42;;;11.08;60.29
77823;BME280;67013;49.730;17.292;2024-03-23T06:26:27;97490.83;;;11.09;59.84
77823;BME280;67013;49.730;17.292;2024-03-23T06:28:56;97489.23;;;11.13;59.65
77823;BME280;67013;49.730;17.292;2024-03-23T06:31:25;97487.85;;;11.19;59.91
77823;BME280;67013;49.730;17.292;2024-03-23T06:33:56;97487.72;;;11.24;60.05
77823;BME280;67013;49.730;17.292;2024-03-23T06:36:25;97482.86;;;11.34;59.88
77823;BME280;67013;49.730;17.292;2024-03-23T06:38:54;97484.60;;;11.44;59.85
77823;BME280;67013;49.730;17.292;2024-03-23T06:41:24;97479.64;;;11.54;59.63
77823;BME280;67013;49.730;17.292;2024-03-23T06:43:53;97478.71;;;11.66;59.40
77823;BME280;67013;49.730;17.292;2024-03-23T06:46:23;97479.59;;;11.79;59.05
77823;BME280;67013;49.730;17.292;2024-03-23T06:48:52;97477.96;;;11.93;59.28
77823;BME280;67013;49.730;17.292;2024-03-23T06:51:21;97477.34;;;12.09;59.10
77823;BME280;67013;49.730;17.292;2024-03-23T06:53:52;97478.50;;;12.28;59.06
77823;BME280;67013;49.730;17.292;2024-03-23T06:56:21;97476.52;;;12.44;59.17
77823;BME280;67013;49.730;17.292;2024-03-23T06:58:50;97478.40;;;12.57;59.12
77823;BME280;67013;49.730;17.292;2024-03-23T07:01:19;97478.58;;;12.67;58.92
77823;BME280;67013;49.730;17.292;2024-03-23T07:03:49;97474.42;;;12.77;57.77
77823;BME280;67013;49.730;17.292;2024-03-23T07:06:18;97469.22;;;12.85;57.27
77823;BME280;67013;49.730;17.292;2024-03-23T07:08:47;97462.95;;;12.96;56.94
77823;BME280;67013;49.730;17.292;2024-03-23T07:11:20;97456.81;;;13.08;56.17
77823;BME280;67013;49.730;17.292;2024-03-23T07:13:50;97444.93;;;13.26;55.88
77823;BME280;67013;49.730;17.292;2024-03-23T07:16:20;97442.95;;;13.50;55.35
77823;BME280;67013;49.730;17.292;2024-03-23T07:18:49;97440.14;;;13.79;54.42
77823;BME280;67013;49.730;17.292;2024-03-23T07:21:19;97440.45;;;14.19;54.03
77823;BME280;67013;49.730;17.292;2024-03-23T07:23:48;97442.70;;;14.63;53.02
77823;BME280;67013;49.730;17.292;2024-03-23T07:26:17;97439.78;;;15.04;51.94
77823;BME280;67013;49.730;17.292;2024-03-23T07:28:46;97436.71;;;15.46;51.49
77823;BME280;67013;49.730;17.292;2024-03-23T07:31:17;97431.23;;;15.91;50.21
77823;BME280;67013;49.730;17.292;2024-03-23T07:33:48;97435.53;;;16.33;49.21
77823;BME280;67013;49.730;17.292;2024-03-23T07:36:18;97425.02;;;16.75;48.34
77823;BME280;67013;49.730;17.292;2024-03-23T07:38:47;97419.45;;;17.12;47.41
77823;BME280;67013;49.730;17.292;2024-03-23T07:41:18;97408.86;;;17.51;46.91
77823;BME280;67013;49.730;17.292;2024-03-23T07:43:48;97397.36;;;17.89;45.91
77823;BME280;67013;49.730;17.292;2024-03-23T07:46:17;97391.18;;;18.21;44.80
77823;BME280;67013;49.730;17.292;2024-03-23T07:48:47;97379.77;;;18.42;43.81
77823;BME280;67013;49.730;17.292;2024-03-23T07:51:19;97375.09;;;18.51;43.04
77823;BME280;67013;49.730;17.292;2024-03-23T07:53:49;97373.26;;;18.60;42.49
77823;BME280;67013;49.730;17.292;2024-03-23T07:56:19;97371.73;;;18.72;42.32
77823;BME280;67013;49.730;17.292;2024-03-23T07:58:49;97363.55;;;18.88;42.77
77823;BME280;67013;49.730;17.292;2024-03-23T08:01:18;97357.08;;;19.09;42.11
77823;BME280;67013;49.730;17.292;2024-03-23T08:03:47;97353.62;;;19.23;41.62
77823;BME280;67013;49.730;17.292;2024-03-23T08:06:20;97349.92;;;19.33;41.13
77823;BME280;67013;49.730;17.292;2024-03-23T08:08:51;97348.41;;;19.47;41.35
77823;BME280;67013;49.730;17.292;2024-03-23T08:11:27;97348.05;;;19.62;40.74
77823;BME280;67013;49.730;17.292;2024-03-23T08:13:57;97345.66;;;19.79;40.23
77823;BME280;67013;49.730;17.292;2024-03-23T08:16:27;97337.79;;;19.89;39.69
77823;BME280;67013;49.730;17.292;2024-03-23T08:18:56;97330.15;;;19.79;39.56
77823;BME280;67013;49.730;17.292;2024-03-23T08:21:25;97326.91;;;19.72;39.80
77823;BME280;67013;49.730;17.292;2024-03-23T08:23:54;97321.63;;;19.76;39.59
77823;BME280;67013;49.730;17.292;2024-03-23T08:26:23;97310.42;;;19.73;39.24
77823;BME280;67013;49.730;17.292;2024-03-23T08:28:53;97299.41;;;19.46;38.98
77823;BME280;67013;49.730;17.292;2024-03-23T08:31:22;97290.60;;;19.21;39.61
77823;BME280;67013;49.730;17.292;2024-03-23T08:33:51;97275.56;;;19.05;40.30
77823;BME280;67013;49.730;17.292;2024-03-23T08:36:20;97267.31;;;19.11;40.07
77823;BME280;67013;49.730;17.292;2024-03-23T08:38:49;97255.79;;;19.14;40.39
77823;BME280;67013;49.730;17.292;2024-03-23T08:41:21;97247.29;;;19.26;40.35
77823;BME280;67013;49.730;17.292;2024-03-23T08:43:51;97237.59;;;19.38;40.34
77823;BME280;67013;49.730;17.292;2024-03-23T08:46:20;97229.86;;;19.54;40.04
77823;BME280;67013;49.730;17.292;2024-03-23T08:48:49;97227.49;;;19.71;39.86
77823;BME280;67013;49.730;17.292;2024-03-23T08:51:20;97234.36;;;19.79;39.55
77823;BME280;67013;49.730;17.292;2024-03-23T08:53:49;97240.37;;;19.83;39.50
77823;BME280;67013;49.730;17.292;2024-03-23T08:56:18;97249.23;;;19.88;39.52
77823;BME280;67013;49.730;17.292;2024-03-23T08:58:47;97253.63;;;19.89;39.53
77823;BME280;67013;49.730;17.292;2024-03-23T09:01:16;97251.75;;;19.87;39.63
77823;BME280;67013;49.730;17.292;2024-03-23T09:03:46;97256.13;;;19.94;40.16
77823;BME280;67013;49.730;17.292;2024-03-23T09:06:16;97258.40;;;20.01;39.85
77823;BME280;67013;49.730;17.292;2024-03-23T09:08:45;97252.95;;;20.04;39.64
77823;BME280;67013;49.730;17.292;2024-03-23T09:11:14;97243.08;;;20.04;39.63
77823;BME280;67013;49.730;17.292;2024-03-23T09:13:44;97229.56;;;20.03;39.47
77823;BME280;67013;49.730;17.292;2024-03-23T09:16:13;97225.17;;;19.83;39.84
77823;BME280;67013;49.730;17.292;2024-03-23T09:18:42;97215.52;;;19.60;40.25
77823;BME280;67013;49.730;17.292;2024-03-23T09:21:13;97215.30;;;19.39;40.82
77823;BME280;67013;49.730;17.292;2024-03-23T09:23:44;97219.40;;;19.16;41.17
77823;BME280;67013;49.730;17.292;2024-03-23T09:26:14;97213.48;;;18.96;41.62
77823;BME280;67013;49.730;17.292;2024-03-23T09:28:43;97208.30;;;18.80;42.07
77823;BME280;67013;49.730;17.292;2024-03-23T09:31:12;97201.54;;;18.64;42.45
77823;BME280;67013;49.730;17.292;2024-03-23T09:33:43;97193.63;;;18.45;42.85
77823;BME280;67013;49.730;17.292;2024-03-23T09:36:12;97181.78;;;18.33;43.44
77823;BME280;67013;49.730;17.292;2024-03-23T09:38:42;97166.58;;;18.27;43.98
77823;BME280;67013;49.730;17.292;2024-03-23T09:41:11;97160.80;;;18.39;44.24
77823;BME280;67013;49.730;17.292;2024-03-23T09:43:42;97147.56;;;18.64;44.59
77823;BME280;67013;49.730;17.292;2024-03-23T09:46:11;97138.20;;;18.84;43.95
77823;BME280;67013;49.730;17.292;2024-03-23T09:48:40;97127.16;;;18.88;43.88
77823;BME280;67013;49.730;17.292;2024-03-23T09:51:11;97121.31;;;19.00;43.65
77823;BME280;67013;49.730;17.292;2024-03-23T09:53:41;97116.57;;;19.05;43.15
77823;BME280;67013;49.730;17.292;2024-03-23T09:56:10;97128.33;;;19.12;43.45
77823;BME280;67013;49.730;17.292;2024-03-23T09:58:39;97122.80;;;19.22;43.51
77823;BME280;67013;49.730;17.292;2024-03-23T10:01:09;97117.83;;;19.38;43.44
77823;BME280;67013;49.730;17.292;2024-03-23T10:03:44;97107.35;;;19.64;43.15
77823;BME280;67013;49.730;17.292;2024-03-23T10:06:14;97101.11;;;19.94;42.78
77823;BME280;67013;49.730;17.292;2024-03-23T10:08:50;97094.30;;;20.26;41.71
77823;BME280;67013;49.730;17.292;2024-03-23T10:11:20;97090.68;;;20.52;40.88
77823;BME280;67013;49.730;17.292;2024-03-23T10:13:49;97087.60;;;20.71;40.49
77823;BME280;67013;49.730;17.292;2024-03-23T10:16:25;97078.02;;;20.88;40.49
77823;BME280;67013;49.730;17.292;2024-03-23T10:18:54;97068.07;;;21.10;39.98
77823;BME280;67013;49.730;17.292;2024-03-23T10:21:23;97062.25;;;21.25;39.81
77823;BME280;67013;49.730;17.292;2024-03-23T10:23:52;97055.13;;;21.29;38.84
77823;BME280;67013;49.730;17.292;2024-03-23T10:26:23;97048.73;;;21.25;39.63
77823;BME280;67013;49.730;17.292;2024-03-23T10:28:55;97036.23;;;21.35;39.67
77823;BME280;67013;49.730;17.292;2024-03-23T10:31:27;97028.78;;;21.40;39.41
77823;BME280;67013;49.730;17.292;2024-03-23T10:33:57;97020.23;;;21.44;39.65
77823;BME280;67013;49.730;17.292;2024-03-23T10:36:29;97014.52;;;21.56;39.37
77823;BME280;67013;49.730;17.292;2024-03-23T10:38:58;96995.27;;;21.56;38.05
77823;BME280;67013;49.730;17.292;2024-03-23T10:41:28;96990.39;;;21.48;38.16
77823;BME280;67013;49.730;17.292;2024-03-23T10:44:03;96977.77;;;21.40;37.72
77823;BME280;67013;49.730;17.292;2024-03-23T10:46:34;96974.92;;;21.35;37.64
77823;BME280;67013;49.730;17.292;2024-03-23T10:49:05;96972.64;;;21.33;37.76
77823;BME280;67013;49.730;17.292;2024-03-23T10:51:35;96955.86;;;21.36;37.51
77823;BME280;67013;49.730;17.292;2024-03-23T10:54:05;96945.41;;;21.36;37.31
77823;BME280;67013;49.730;17.292;2024-03-23T10:56:37;96947.04;;;21.29;37.55
77823;BME280;67013;49.730;17.292;2024-03-23T10:59:08;96933.09;;;21.26;38.13
77823;BME280;67013;49.730;17.292;2024-03-23T11:01:55;96937.96;;;21.33;38.47
77823;BME280;67013;49.730;17.292;2024-03-23T11:04:35;96933.77;;;21.43;38.19
77823;BME280;67013;49.730;17.292;2024-03-23T11:07:29;96927.14;;;21.46;37.70
77823;BME280;67013;49.730;17.292;2024-03-23T11:10:00;96933.86;;;21.51;37.77
77823;BME280;67013;49.730;17.292;2024-03-23T11:12:29;96928.44;;;21.56;36.97
77823;BME280;67013;49.730;17.292;2024-03-23T11:15:00;96920.23;;;21.56;37.04
77823;BME280;67013;49.730;17.292;2024-03-23T11:17:30;96923.95;;;21.61;37.03
77823;BME280;67013;49.730;17.292;2024-03-23T11:20:00;96916.91;;;21.64;36.67
77823;BME280;67013;49.730;17.292;2024-03-23T11:22:43;96909.34;;;21.74;37.21
77823;BME280;67013;49.730;17.292;2024-03-23T11:25:19;96908.18;;;21.90;36.93
77823;BME280;67013;49.730;17.292;2024-03-23T11:27:50;96914.33;;;22.02;36.60
77823;BME280;67013;49.730;17.292;2024-03-23T11:30:21;96902.46;;;22.06;36.59
77823;BME280;67013;49.730;17.292;2024-03-23T11:32:51;96896.77;;;22.11;36.67
77823;BME280;67013;49.730;17.292;2024-03-23T11:35:32;96892.18;;;22.15;36.01
77823;BME280;67013;49.730;17.292;2024-03-23T11:38:09;96883.41;;;22.14;35.66
77823;BME280;67013;49.730;17.292;2024-03-23T11:40:40;96880.55;;;22.13;35.97
77823;BME280;67013;49.730;17.292;2024-03-23T11:43:11;96877.27;;;22.11;35.71
77823;BME280;67013;49.730;17.292;2024-03-23T11:45:43;96872.73;;;22.09;35.86
77823;BME280;67013;49.730;17.292;2024-03-23T11:48:14;96870.11;;;22.05;35.96
77823;BME280;67013;49.730;17.292;2024-03-23T11:50:48;96876.54;;;21.98;35.91
77823;BME280;67013;49.730;17.292;2024-03-23T11:53:20;96868.87;;;21.87;35.97
77823;BME280;67013;49.730;17.292;2024-03-23T11:55:52;96857.40;;;21.75;36.58
77823;BME280;67013;49.730;17.292;2024-03-23T11:58:20;96863.71;;;21.64;36.94
77823;BME280;67013;49.730;17.292;2024-03-23T12:00:56;96870.36;;;21.46;36.60
77823;BME280;67013;49.730;17.292;2024-03-23T12:03:29;96875.28;;;21.20;37.06
77823;BME280;67013;49.730;17.292;2024-03-23T12:06:02;96871.94;;;20.92;37.93
77823;BME280;67013;49.730;17.292;2024-03-23T12:08:32;96872.71;;;20.64;39.85
77823;BME280;67013;49.730;17.292;2024-03-23T12:11:09;96873.14;;;20.38;41.83
77823;BME280;67013;49.730;17.292;2024-03-23T12:13:43;96878.59;;;20.11;42.77
77823;BME280;67013;49.730;17.292;2024-03-23T12:16:15;96880.68;;;19.86;43.50
77823;BME280;67013;49.730;17.292;2024-03-23T12:18:45;96888.12;;;19.65;44.61
77823;BME280;67013;49.730;17.292;2024-03-23T12:21:15;96941.31;;;19.43;47.51
77823;BME280;67013;49.730;17.292;2024-03-23T12:23:45;97087.77;;;19.20;50.79
77823;BME280;67013;49.730;17.292;2024-03-23T12:26:17;97100.02;;;18.95;51.06
77823;BME280;67013;49.730;17.292;2024-03-23T12:28:46;97101.92;;;18.63;52.06
77823;BME280;67013;49.730;17.292;2024-03-23T12:31:15;97131.73;;;18.28;53.98
77823;BME280;67013;49.730;17.292;2024-03-23T12:33:45;97151.70;;;17.87;55.30
77823;BME280;67013;49.730;17.292;2024-03-23T12:36:14;97144.94;;;17.50;56.85
77823;BME280;67013;49.730;17.292;2024-03-23T12:38:43;97139.08;;;17.20;57.65
77823;BME280;67013;49.730;17.292;2024-03-23T12:41:12;97124.96;;;16.92;58.22
77823;BME280;67013;49.730;17.292;2024-03-23T12:43:45;97118.33;;;16.67;58.64
77823;BME280;67013;49.730;17.292;2024-03-23T12:46:14;97127.70;;;16.43;58.29
77823;BME280;67013;49.730;17.292;2024-03-23T12:48:45;97123.06;;;16.21;59.24
77823;BME280;67013;49.730;17.292;2024-03-23T12:51:14;97113.79;;;16.01;59.07
77823;BME280;67013;49.730;17.292;2024-03-23T12:53:44;97115.62;;;15.84;59.34
77823;BME280;67013;49.730;17.292;2024-03-23T12:56:14;97123.58;;;15.70;59.39
77823;BME280;67013;49.730;17.292;2024-03-23T12:58:43;97121.90;;;15.58;59.84
77823;BME280;67013;49.730;17.292;2024-03-23T13:01:17;97129.75;;;15.47;60.09
77823;BME280;67013;49.730;17.292;2024-03-23T13:03:51;97128.27;;;15.37;60.40
77823;BME280;67013;49.730;17.292;2024-03-23T13:06:21;97133.91;;;15.29;60.04
77823;BME280;67013;49.730;17.292;2024-03-23T13:08:52;97139.54;;;15.19;60.34
77823;BME280;67013;49.730;17.292;2024-03-23T13:11:25;97134.03;;;15.11;60.63
77823;BME280;67013;49.730;17.292;2024-03-23T13:13:57;97137.22;;;15.00;60.55
77823;BME280;67013;49.730;17.292;2024-03-23T13:16:26;97132.63;;;14.91;61.34
77823;BME280;67013;49.730;17.292;2024-03-23T13:18:56;97120.70;;;14.83;61.35
77823;BME280;67013;49.730;17.292;2024-03-23T13:21:25;97116.48;;;14.75;61.61
77823;BME280;67013;49.730;17.292;2024-03-23T13:23:55;97120.89;;;14.70;62.26
77823;BME280;67013;49.730;17.292;2024-03-23T13:26:24;97118.07;;;14.65;62.42
77823;BME280;67013;49.730;17.292;2024-03-23T13:28:53;97106.84;;;14.61;62.46
77823;BME280;67013;49.730;17.292;2024-03-23T13:31:22;97103.41;;;14.57;62.77
77823;BME280;67013;49.730;17.292;2024-03-23T13:33:51;97101.02;;;14.55;63.39
77823;BME280;67013;49.730;17.292;2024-03-23T13:36:20;97103.89;;;14.56;63.32
77823;BME280;67013;49.730;17.292;2024-03-23T13:38:49;97118.98;;;14.59;63.62
77823;BME280;67013;49.730;17.292;2024-03-23T13:41:21;97112.65;;;14.62;63.85
77823;BME280;67013;49.730;17.292;2024-03-23T13:43:51;97113.60;;;14.66;64.38
77823;BME280;67013;49.730;17.292;2024-03-23T13:46:22;97109.56;;;14.71;64.52
77823;BME280;67013;49.730;17.292;2024-03-23T13:48:50;97112.77;;;14.75;64.62
77823;BME280;67013;49.730;17.292;2024-03-23T13:51:24;97100.53;;;14.80;64.90
77823;BME280;67013;49.730;17.292;2024-03-23T13:53:55;97093.02;;;14.88;65.10
77823;BME280;67013;49.730;17.292;2024-03-23T13:56:25;97092.17;;;14.97;65.02
77823;BME280;67013;49.730;17.292;2024-03-23T13:58:55;97081.98;;;15.04;65.20